Flat Top, West Virginia
Current Conditions -  °F | °C
As of 9:59 AM on Friday 28 Nov 2014 (Local Time) from KBKW Reporting Station
Light Snow Light Snow  
Wind Chill: 15°   Ceiling: 1500
Heat Index: 23°   Visibility: 1.5mi
Dew Point: 17°   Wind: 7mph
Humidity: 78%   Direction: 330°NNW
Pressure: 30.29"   Gusts: NA
Location:  37.59°N, 81.11°W
Report Text: KBKW 281459Z AUTO 33006KT 1 1/2SM -SN BKN015 OVC032 M05/M08 A3029 RMK AO2 P0000 T10501083
Loading
Personal Weather Stations






























Interactive Weather Map New forecast layout! Learn more

10-Day Weather Forecast

Advertisements
Track Severe Weather on mobile